sensor_id;sensor_type;location;lat;lon;timestamp;P1;durP1;ratioP1;P2;durP2;ratioP2
23142;SDS011;11740;51.168;4.112;2023-06-26T00:00:07;5.97;;;3.08;;
23142;SDS011;11740;51.168;4.112;2023-06-26T00:02:34;6.05;;;2.63;;
23142;SDS011;11740;51.168;4.112;2023-06-26T00:05:01;7.43;;;2.90;;
23142;SDS011;11740;51.168;4.112;2023-06-26T00:07:29;4.90;;;2.88;;
23142;SDS011;11740;51.168;4.112;2023-06-26T00:09:57;4.13;;;3.00;;
23142;SDS011;11740;51.168;4.112;2023-06-26T00:12:25;6.18;;;3.30;;
23142;SDS011;11740;51.168;4.112;2023-06-26T00:14:52;3.97;;;3.08;;
23142;SDS011;11740;51.168;4.112;2023-06-26T00:17:19;6.65;;;3.17;;
23142;SDS011;11740;51.168;4.112;2023-06-26T00:19:47;3.40;;;3.10;;
23142;SDS011;11740;51.168;4.112;2023-06-26T00:22:14;6.03;;;3.20;;
23142;SDS011;11740;51.168;4.112;2023-06-26T00:24:41;4.97;;;3.30;;
23142;SDS011;11740;51.168;4.112;2023-06-26T00:27:08;7.70;;;3.10;;
23142;SDS011;11740;51.168;4.112;2023-06-26T00:29:35;4.43;;;3.00;;
23142;SDS011;11740;51.168;4.112;2023-06-26T00:32:02;5.13;;;2.75;;
23142;SDS011;11740;51.168;4.112;2023-06-26T00:34:29;4.50;;;3.05;;
23142;SDS011;11740;51.168;4.112;2023-06-26T00:36:56;5.45;;;3.00;;
23142;SDS011;11740;51.168;4.112;2023-06-26T00:39:23;7.10;;;2.80;;
23142;SDS011;11740;51.168;4.112;2023-06-26T00:41:52;6.90;;;2.90;;
23142;SDS011;11740;51.168;4.112;2023-06-26T00:44:21;4.43;;;3.38;;
23142;SDS011;11740;51.168;4.112;2023-06-26T00:46:48;4.15;;;3.03;;
23142;SDS011;11740;51.168;4.112;2023-06-26T00:49:15;5.13;;;3.20;;
23142;SDS011;11740;51.168;4.112;2023-06-26T00:51:42;4.53;;;2.88;;
23142;SDS011;11740;51.168;4.112;2023-06-26T00:54:10;5.30;;;3.10;;
23142;SDS011;11740;51.168;4.112;2023-06-26T00:56:37;6.10;;;3.38;;
23142;SDS011;11740;51.168;4.112;2023-06-26T00:59:05;6.85;;;3.20;;
23142;SDS011;11740;51.168;4.112;2023-06-26T01:01:32;6.90;;;2.95;;
23142;SDS011;11740;51.168;4.112;2023-06-26T01:03:59;5.35;;;2.95;;
23142;SDS011;11740;51.168;4.112;2023-06-26T01:06:26;5.60;;;3.25;;
23142;SDS011;11740;51.168;4.112;2023-06-26T01:08:58;6.47;;;2.90;;
23142;SDS011;11740;51.168;4.112;2023-06-26T01:11:26;4.60;;;2.97;;
23142;SDS011;11740;51.168;4.112;2023-06-26T01:13:53;6.68;;;2.90;;
23142;SDS011;11740;51.168;4.112;2023-06-26T01:16:23;6.63;;;3.00;;
23142;SDS011;11740;51.168;4.112;2023-06-26T01:18:50;6.75;;;3.15;;
23142;SDS011;11740;51.168;4.112;2023-06-26T01:21:18;5.95;;;3.45;;
23142;SDS011;11740;51.168;4.112;2023-06-26T01:24:31;5.85;;;3.28;;
23142;SDS011;11740;51.168;4.112;2023-06-26T01:26:48;7.28;;;3.20;;
23142;SDS011;11740;51.168;4.112;2023-06-26T01:29:17;6.00;;;2.85;;
23142;SDS011;11740;51.168;4.112;2023-06-26T01:31:46;8.27;;;3.75;;
23142;SDS011;11740;51.168;4.112;2023-06-26T01:34:16;8.90;;;3.63;;
23142;SDS011;11740;51.168;4.112;2023-06-26T01:36:44;7.85;;;3.25;;
23142;SDS011;11740;51.168;4.112;2023-06-26T01:39:14;6.15;;;3.25;;
23142;SDS011;11740;51.168;4.112;2023-06-26T01:41:44;8.25;;;3.15;;
23142;SDS011;11740;51.168;4.112;2023-06-26T01:44:26;6.25;;;3.30;;
23142;SDS011;11740;51.168;4.112;2023-06-26T01:47:02;9.30;;;3.50;;
23142;SDS011;11740;51.168;4.112;2023-06-26T01:49:33;5.00;;;2.88;;
23142;SDS011;11740;51.168;4.112;2023-06-26T01:52:08;7.75;;;3.95;;
23142;SDS011;11740;51.168;4.112;2023-06-26T01:55:40;13.15;;;3.80;;
23142;SDS011;11740;51.168;4.112;2023-06-26T01:57:48;7.43;;;3.47;;
23142;SDS011;11740;51.168;4.112;2023-06-26T02:00:19;10.02;;;3.63;;
23142;SDS011;11740;51.168;4.112;2023-06-26T02:02:47;11.55;;;3.47;;
23142;SDS011;11740;51.168;4.112;2023-06-26T02:05:14;8.45;;;3.80;;
23142;SDS011;11740;51.168;4.112;2023-06-26T02:07:41;6.78;;;3.30;;
23142;SDS011;11740;51.168;4.112;2023-06-26T02:10:10;6.00;;;3.40;;
23142;SDS011;11740;51.168;4.112;2023-06-26T02:12:37;6.93;;;3.50;;
23142;SDS011;11740;51.168;4.112;2023-06-26T02:15:05;8.45;;;3.42;;
23142;SDS011;11740;51.168;4.112;2023-06-26T02:17:32;7.30;;;3.50;;
23142;SDS011;11740;51.168;4.112;2023-06-26T02:20:00;7.20;;;3.42;;
23142;SDS011;11740;51.168;4.112;2023-06-26T02:22:27;9.45;;;3.58;;
23142;SDS011;11740;51.168;4.112;2023-06-26T02:24:54;7.05;;;3.15;;
23142;SDS011;11740;51.168;4.112;2023-06-26T02:27:21;8.57;;;3.60;;
23142;SDS011;11740;51.168;4.112;2023-06-26T02:29:48;8.75;;;3.50;;
23142;SDS011;11740;51.168;4.112;2023-06-26T02:32:15;7.45;;;3.80;;
23142;SDS011;11740;51.168;4.112;2023-06-26T02:34:42;8.23;;;3.45;;
23142;SDS011;11740;51.168;4.112;2023-06-26T02:37:09;10.10;;;3.70;;
23142;SDS011;11740;51.168;4.112;2023-06-26T02:39:36;9.30;;;3.33;;
23142;SDS011;11740;51.168;4.112;2023-06-26T02:42:03;8.65;;;3.42;;
23142;SDS011;11740;51.168;4.112;2023-06-26T02:44:31;10.07;;;3.65;;
23142;SDS011;11740;51.168;4.112;2023-06-26T02:46:58;9.93;;;3.30;;
23142;SDS011;11740;51.168;4.112;2023-06-26T02:49:25;13.82;;;4.15;;
23142;SDS011;11740;51.168;4.112;2023-06-26T02:51:52;9.27;;;3.88;;
23142;SDS011;11740;51.168;4.112;2023-06-26T02:54:19;11.93;;;4.20;;
23142;SDS011;11740;51.168;4.112;2023-06-26T02:56:46;8.63;;;4.38;;
23142;SDS011;11740;51.168;4.112;2023-06-26T02:59:13;13.70;;;4.30;;
23142;SDS011;11740;51.168;4.112;2023-06-26T03:01:41;11.68;;;4.22;;
23142;SDS011;11740;51.168;4.112;2023-06-26T03:04:08;9.80;;;3.78;;
23142;SDS011;11740;51.168;4.112;2023-06-26T03:06:35;12.27;;;4.07;;
23142;SDS011;11740;51.168;4.112;2023-06-26T03:09:02;13.65;;;4.13;;
23142;SDS011;11740;51.168;4.112;2023-06-26T03:11:29;10.07;;;3.75;;
23142;SDS011;11740;51.168;4.112;2023-06-26T03:13:56;10.27;;;3.95;;
23142;SDS011;11740;51.168;4.112;2023-06-26T03:16:23;10.32;;;3.90;;
23142;SDS011;11740;51.168;4.112;2023-06-26T03:18:50;14.55;;;4.38;;
23142;SDS011;11740;51.168;4.112;2023-06-26T03:21:17;8.93;;;3.90;;
23142;SDS011;11740;51.168;4.112;2023-06-26T03:23:44;10.48;;;3.92;;
23142;SDS011;11740;51.168;4.112;2023-06-26T03:26:11;13.60;;;4.65;;
23142;SDS011;11740;51.168;4.112;2023-06-26T03:28:40;11.48;;;4.13;;
23142;SDS011;11740;51.168;4.112;2023-06-26T03:31:08;11.68;;;4.28;;
23142;SDS011;11740;51.168;4.112;2023-06-26T03:33:36;12.13;;;3.58;;
23142;SDS011;11740;51.168;4.112;2023-06-26T03:36:04;13.10;;;4.60;;
23142;SDS011;11740;51.168;4.112;2023-06-26T03:38:32;13.13;;;4.30;;
23142;SDS011;11740;51.168;4.112;2023-06-26T03:40:59;11.07;;;3.75;;
23142;SDS011;11740;51.168;4.112;2023-06-26T03:43:26;13.98;;;4.63;;
23142;SDS011;11740;51.168;4.112;2023-06-26T03:45:53;15.93;;;4.25;;
23142;SDS011;11740;51.168;4.112;2023-06-26T03:48:20;14.68;;;4.45;;
23142;SDS011;11740;51.168;4.112;2023-06-26T03:50:47;14.02;;;4.43;;
23142;SDS011;11740;51.168;4.112;2023-06-26T03:53:14;12.63;;;4.18;;
23142;SDS011;11740;51.168;4.112;2023-06-26T03:55:41;15.27;;;4.50;;
23142;SDS011;11740;51.168;4.112;2023-06-26T03:58:08;14.18;;;4.30;;
23142;SDS011;11740;51.168;4.112;2023-06-26T04:00:35;16.23;;;4.25;;
23142;SDS011;11740;51.168;4.112;2023-06-26T04:03:02;13.57;;;4.03;;
23142;SDS011;11740;51.168;4.112;2023-06-26T04:05:29;15.60;;;5.05;;
23142;SDS011;11740;51.168;4.112;2023-06-26T04:07:56;14.38;;;4.50;;
23142;SDS011;11740;51.168;4.112;2023-06-26T04:10:23;11.10;;;3.97;;
23142;SDS011;11740;51.168;4.112;2023-06-26T04:12:50;10.35;;;3.88;;
23142;SDS011;11740;51.168;4.112;2023-06-26T04:15:17;13.43;;;4.28;;
23142;SDS011;11740;51.168;4.112;2023-06-26T04:17:44;16.73;;;4.68;;
23142;SDS011;11740;51.168;4.112;2023-06-26T04:20:11;13.48;;;4.60;;
23142;SDS011;11740;51.168;4.112;2023-06-26T04:22:38;11.57;;;4.13;;
23142;SDS011;11740;51.168;4.112;2023-06-26T04:25:05;13.38;;;4.13;;
23142;SDS011;11740;51.168;4.112;2023-06-26T04:27:32;13.73;;;4.30;;
23142;SDS011;11740;51.168;4.112;2023-06-26T04:30:02;12.55;;;4.45;;
23142;SDS011;11740;51.168;4.112;2023-06-26T04:32:31;12.45;;;4.35;;
23142;SDS011;11740;51.168;4.112;2023-06-26T04:34:58;15.27;;;4.65;;
23142;SDS011;11740;51.168;4.112;2023-06-26T04:37:25;16.30;;;4.88;;
23142;SDS011;11740;51.168;4.112;2023-06-26T04:39:52;12.77;;;4.22;;
23142;SDS011;11740;51.168;4.112;2023-06-26T04:42:19;13.68;;;4.50;;
23142;SDS011;11740;51.168;4.112;2023-06-26T04:44:48;16.25;;;4.47;;
23142;SDS011;11740;51.168;4.112;2023-06-26T04:47:14;15.90;;;4.15;;
23142;SDS011;11740;51.168;4.112;2023-06-26T04:49:41;12.35;;;3.95;;
23142;SDS011;11740;51.168;4.112;2023-06-26T04:52:12;17.77;;;4.47;;
23142;SDS011;11740;51.168;4.112;2023-06-26T04:54:40;11.00;;;4.53;;
23142;SDS011;11740;51.168;4.112;2023-06-26T04:57:07;14.70;;;4.90;;
23142;SDS011;11740;51.168;4.112;2023-06-26T04:59:35;14.13;;;4.47;;
23142;SDS011;11740;51.168;4.112;2023-06-26T05:02:02;15.23;;;4.25;;
23142;SDS011;11740;51.168;4.112;2023-06-26T05:04:31;12.60;;;4.10;;
23142;SDS011;11740;51.168;4.112;2023-06-26T05:06:58;16.73;;;4.57;;
23142;SDS011;11740;51.168;4.112;2023-06-26T05:09:25;10.45;;;4.15;;
23142;SDS011;11740;51.168;4.112;2023-06-26T05:11:52;12.82;;;4.28;;
23142;SDS011;11740;51.168;4.112;2023-06-26T05:14:19;13.05;;;4.30;;
23142;SDS011;11740;51.168;4.112;2023-06-26T05:16:49;11.55;;;3.80;;
23142;SDS011;11740;51.168;4.112;2023-06-26T05:19:16;14.90;;;4.57;;
23142;SDS011;11740;51.168;4.112;2023-06-26T05:21:43;14.23;;;4.57;;
23142;SDS011;11740;51.168;4.112;2023-06-26T05:24:10;13.07;;;4.03;;
23142;SDS011;11740;51.168;4.112;2023-06-26T05:26:40;12.38;;;3.80;;
23142;SDS011;11740;51.168;4.112;2023-06-26T05:29:07;12.50;;;4.05;;
23142;SDS011;11740;51.168;4.112;2023-06-26T05:31:34;13.38;;;3.58;;
23142;SDS011;11740;51.168;4.112;2023-06-26T05:34:07;13.10;;;3.42;;
23142;SDS011;11740;51.168;4.112;2023-06-26T05:36:36;14.73;;;3.88;;
23142;SDS011;11740;51.168;4.112;2023-06-26T05:39:08;10.10;;;3.13;;
23142;SDS011;11740;51.168;4.112;2023-06-26T05:41:35;11.80;;;2.92;;
23142;SDS011;11740;51.168;4.112;2023-06-26T05:44:03;10.90;;;2.70;;
23142;SDS011;11740;51.168;4.112;2023-06-26T05:46:30;10.15;;;3.10;;
23142;SDS011;11740;51.168;4.112;2023-06-26T05:48:57;9.90;;;2.75;;
23142;SDS011;11740;51.168;4.112;2023-06-26T05:51:28;9.40;;;2.30;;
23142;SDS011;11740;51.168;4.112;2023-06-26T05:53:55;8.57;;;2.38;;
23142;SDS011;11740;51.168;4.112;2023-06-26T05:56:22;12.00;;;2.30;;
23142;SDS011;11740;51.168;4.112;2023-06-26T05:58:50;8.95;;;2.38;;
23142;SDS011;11740;51.168;4.112;2023-06-26T06:01:18;11.05;;;2.22;;
23142;SDS011;11740;51.168;4.112;2023-06-26T06:03:46;7.20;;;2.15;;
23142;SDS011;11740;51.168;4.112;2023-06-26T06:06:13;8.68;;;1.95;;
23142;SDS011;11740;51.168;4.112;2023-06-26T06:08:42;9.40;;;2.15;;
23142;SDS011;11740;51.168;4.112;2023-06-26T06:11:11;8.38;;;1.80;;
23142;SDS011;11740;51.168;4.112;2023-06-26T06:13:38;8.18;;;1.92;;
23142;SDS011;11740;51.168;4.112;2023-06-26T06:16:05;6.82;;;1.80;;
23142;SDS011;11740;51.168;4.112;2023-06-26T06:18:32;6.70;;;1.42;;
23142;SDS011;11740;51.168;4.112;2023-06-26T06:20:59;4.57;;;1.42;;
23142;SDS011;11740;51.168;4.112;2023-06-26T06:23:26;14.20;;;2.20;;
23142;SDS011;11740;51.168;4.112;2023-06-26T06:25:53;5.03;;;1.63;;
23142;SDS011;11740;51.168;4.112;2023-06-26T06:28:20;5.72;;;1.85;;
23142;SDS011;11740;51.168;4.112;2023-06-26T06:30:47;8.07;;;1.70;;
23142;SDS011;11740;51.168;4.112;2023-06-26T06:33:15;9.05;;;1.40;;
23142;SDS011;11740;51.168;4.112;2023-06-26T06:35:42;4.25;;;1.30;;
23142;SDS011;11740;51.168;4.112;2023-06-26T06:38:09;5.35;;;1.77;;
23142;SDS011;11740;51.168;4.112;2023-06-26T06:40:36;5.50;;;1.33;;
23142;SDS011;11740;51.168;4.112;2023-06-26T06:43:04;6.22;;;1.40;;
23142;SDS011;11740;51.168;4.112;2023-06-26T06:45:31;4.05;;;1.20;;
23142;SDS011;11740;51.168;4.112;2023-06-26T06:47:57;10.52;;;1.92;;
23142;SDS011;11740;51.168;4.112;2023-06-26T06:50:24;5.45;;;1.45;;
23142;SDS011;11740;51.168;4.112;2023-06-26T06:52:51;6.22;;;1.40;;
23142;SDS011;11740;51.168;4.112;2023-06-26T06:55:18;6.70;;;1.30;;
23142;SDS011;11740;51.168;4.112;2023-06-26T06:57:45;4.05;;;1.27;;
23142;SDS011;11740;51.168;4.112;2023-06-26T07:00:12;5.78;;;1.13;;
23142;SDS011;11740;51.168;4.112;2023-06-26T07:02:42;5.15;;;1.15;;
23142;SDS011;11740;51.168;4.112;2023-06-26T07:05:11;4.25;;;1.17;;
23142;SDS011;11740;51.168;4.112;2023-06-26T07:07:39;6.63;;;1.50;;
23142;SDS011;11740;51.168;4.112;2023-06-26T07:10:07;4.07;;;1.45;;
23142;SDS011;11740;51.168;4.112;2023-06-26T07:12:38;6.65;;;1.58;;
23142;SDS011;11740;51.168;4.112;2023-06-26T07:15:05;5.00;;;1.25;;
23142;SDS011;11740;51.168;4.112;2023-06-26T07:17:33;5.82;;;1.50;;
23142;SDS011;11740;51.168;4.112;2023-06-26T07:20:01;5.57;;;1.52;;
23142;SDS011;11740;51.168;4.112;2023-06-26T07:22:33;5.30;;;1.25;;
23142;SDS011;11740;51.168;4.112;2023-06-26T07:25:01;6.60;;;1.20;;
23142;SDS011;11740;51.168;4.112;2023-06-26T07:27:28;3.83;;;1.30;;
23142;SDS011;11740;51.168;4.112;2023-06-26T07:29:56;5.93;;;1.30;;
23142;SDS011;11740;51.168;4.112;2023-06-26T07:32:23;3.58;;;1.13;;
23142;SDS011;11740;51.168;4.112;2023-06-26T07:34:50;3.25;;;1.20;;
23142;SDS011;11740;51.168;4.112;2023-06-26T07:37:17;6.57;;;1.35;;
23142;SDS011;11740;51.168;4.112;2023-06-26T07:39:44;4.15;;;1.60;;
23142;SDS011;11740;51.168;4.112;2023-06-26T07:42:11;6.13;;;1.40;;
23142;SDS011;11740;51.168;4.112;2023-06-26T07:44:38;5.25;;;1.50;;
23142;SDS011;11740;51.168;4.112;2023-06-26T07:47:05;7.05;;;1.50;;
23142;SDS011;11740;51.168;4.112;2023-06-26T07:49:32;6.15;;;1.50;;
23142;SDS011;11740;51.168;4.112;2023-06-26T07:51:59;6.35;;;1.55;;
23142;SDS011;11740;51.168;4.112;2023-06-26T07:54:26;3.22;;;1.05;;
23142;SDS011;11740;51.168;4.112;2023-06-26T07:57:00;4.60;;;1.42;;
23142;SDS011;11740;51.168;4.112;2023-06-26T07:59:29;5.05;;;1.70;;
23142;SDS011;11740;51.168;4.112;2023-06-26T08:01:57;3.78;;;1.40;;
23142;SDS011;11740;51.168;4.112;2023-06-26T08:04:27;6.65;;;1.52;;
23142;SDS011;11740;51.168;4.112;2023-06-26T08:07:00;5.63;;;1.50;;
23142;SDS011;11740;51.168;4.112;2023-06-26T08:09:28;4.18;;;1.30;;
23142;SDS011;11740;51.168;4.112;2023-06-26T08:11:56;4.10;;;1.27;;
23142;SDS011;11740;51.168;4.112;2023-06-26T08:14:24;4.55;;;1.02;;
23142;SDS011;11740;51.168;4.112;2023-06-26T08:16:51;5.90;;;1.30;;
23142;SDS011;11740;51.168;4.112;2023-06-26T08:19:19;5.50;;;1.50;;
23142;SDS011;11740;51.168;4.112;2023-06-26T08:21:47;4.18;;;1.38;;
23142;SDS011;11740;51.168;4.112;2023-06-26T08:24:14;5.22;;;1.55;;
23142;SDS011;11740;51.168;4.112;2023-06-26T08:26:46;4.70;;;1.50;;
23142;SDS011;11740;51.168;4.112;2023-06-26T08:29:14;6.95;;;1.50;;
23142;SDS011;11740;51.168;4.112;2023-06-26T08:31:42;6.85;;;1.30;;
23142;SDS011;11740;51.168;4.112;2023-06-26T08:34:10;3.35;;;1.25;;
23142;SDS011;11740;51.168;4.112;2023-06-26T08:36:37;9.27;;;1.60;;
23142;SDS011;11740;51.168;4.112;2023-06-26T08:39:04;2.83;;;1.35;;
23142;SDS011;11740;51.168;4.112;2023-06-26T08:41:32;5.70;;;1.20;;
23142;SDS011;11740;51.168;4.112;2023-06-26T08:43:59;5.65;;;1.27;;
23142;SDS011;11740;51.168;4.112;2023-06-26T08:46:27;4.82;;;1.27;;
23142;SDS011;11740;51.168;4.112;2023-06-26T08:48:55;4.20;;;1.30;;
23142;SDS011;11740;51.168;4.112;2023-06-26T08:51:26;5.50;;;1.20;;
23142;SDS011;11740;51.168;4.112;2023-06-26T08:53:56;5.55;;;1.20;;
23142;SDS011;11740;51.168;4.112;2023-06-26T08:56:39;6.85;;;1.30;;
23142;SDS011;11740;51.168;4.112;2023-06-26T08:59:09;6.05;;;1.52;;
23142;SDS011;11740;51.168;4.112;2023-06-26T09:01:37;5.75;;;1.40;;
23142;SDS011;11740;51.168;4.112;2023-06-26T09:04:04;4.32;;;1.48;;
23142;SDS011;11740;51.168;4.112;2023-06-26T09:06:33;3.97;;;1.27;;
23142;SDS011;11740;51.168;4.112;2023-06-26T09:09:00;4.93;;;1.30;;
23142;SDS011;11740;51.168;4.112;2023-06-26T09:11:27;3.88;;;1.42;;
23142;SDS011;11740;51.168;4.112;2023-06-26T09:13:55;5.28;;;1.10;;
23142;SDS011;11740;51.168;4.112;2023-06-26T09:16:25;3.13;;;1.17;;
23142;SDS011;11740;51.168;4.112;2023-06-26T09:18:53;5.10;;;1.35;;
23142;SDS011;11740;51.168;4.112;2023-06-26T09:21:22;4.15;;;1.30;;
23142;SDS011;11740;51.168;4.112;2023-06-26T09:23:50;5.43;;;1.33;;
23142;SDS011;11740;51.168;4.112;2023-06-26T09:26:21;3.05;;;1.40;;
23142;SDS011;11740;51.168;4.112;2023-06-26T09:28:48;6.18;;;1.58;;
23142;SDS011;11740;51.168;4.112;2023-06-26T09:31:16;7.43;;;1.20;;
23142;SDS011;11740;51.168;4.112;2023-06-26T09:34:05;4.05;;;1.10;;
23142;SDS011;11740;51.168;4.112;2023-06-26T09:36:33;3.90;;;1.38;;
23142;SDS011;11740;51.168;4.112;2023-06-26T09:39:06;3.03;;;1.30;;
23142;SDS011;11740;51.168;4.112;2023-06-26T09:41:38;2.67;;;1.08;;
23142;SDS011;11740;51.168;4.112;2023-06-26T09:44:10;3.28;;;1.15;;
23142;SDS011;11740;51.168;4.112;2023-06-26T09:46:40;3.88;;;1.20;;
23142;SDS011;11740;51.168;4.112;2023-06-26T09:49:11;3.88;;;1.02;;
23142;SDS011;11740;51.168;4.112;2023-06-26T09:51:39;5.97;;;1.13;;
23142;SDS011;11740;51.168;4.112;2023-06-26T09:54:09;4.68;;;1.45;;
23142;SDS011;11740;51.168;4.112;2023-06-26T09:56:36;7.18;;;1.30;;
23142;SDS011;11740;51.168;4.112;2023-06-26T09:59:04;6.32;;;1.35;;
23142;SDS011;11740;51.168;4.112;2023-06-26T10:01:32;3.38;;;1.35;;
23142;SDS011;11740;51.168;4.112;2023-06-26T10:04:00;3.58;;;1.40;;
23142;SDS011;11740;51.168;4.112;2023-06-26T10:06:33;6.20;;;1.30;;
23142;SDS011;11740;51.168;4.112;2023-06-26T10:09:03;2.80;;;1.20;;
23142;SDS011;11740;51.168;4.112;2023-06-26T10:11:40;4.93;;;1.33;;
23142;SDS011;11740;51.168;4.112;2023-06-26T10:14:13;4.43;;;1.20;;
23142;SDS011;11740;51.168;4.112;2023-06-26T10:16:44;3.08;;;1.40;;
23142;SDS011;11740;51.168;4.112;2023-06-26T10:19:13;5.68;;;1.70;;
23142;SDS011;11740;51.168;4.112;2023-06-26T10:21:45;7.00;;;1.50;;
23142;SDS011;11740;51.168;4.112;2023-06-26T10:24:12;5.50;;;1.67;;
23142;SDS011;11740;51.168;4.112;2023-06-26T10:26:42;3.30;;;1.10;;
23142;SDS011;11740;51.168;4.112;2023-06-26T10:29:12;2.55;;;1.20;;
23142;SDS011;11740;51.168;4.112;2023-06-26T10:31:42;3.00;;;1.27;;
23142;SDS011;11740;51.168;4.112;2023-06-26T10:34:15;2.83;;;1.30;;
23142;SDS011;11740;51.168;4.112;2023-06-26T10:36:42;3.67;;;1.40;;
23142;SDS011;11740;51.168;4.112;2023-06-26T10:39:09;3.92;;;1.42;;
23142;SDS011;11740;51.168;4.112;2023-06-26T10:41:37;4.72;;;1.60;;
23142;SDS011;11740;51.168;4.112;2023-06-26T10:44:26;5.57;;;1.33;;
23142;SDS011;11740;51.168;4.112;2023-06-26T10:46:54;5.85;;;1.50;;
23142;SDS011;11740;51.168;4.112;2023-06-26T10:49:24;5.35;;;1.60;;
23142;SDS011;11740;51.168;4.112;2023-06-26T10:51:55;5.88;;;1.40;;
23142;SDS011;11740;51.168;4.112;2023-06-26T10:54:27;3.78;;;1.30;;
23142;SDS011;11740;51.168;4.112;2023-06-26T10:56:56;5.38;;;1.50;;
23142;SDS011;11740;51.168;4.112;2023-06-26T10:59:27;3.22;;;1.38;;
23142;SDS011;11740;51.168;4.112;2023-06-26T11:01:56;4.13;;;1.60;;
23142;SDS011;11740;51.168;4.112;2023-06-26T11:07:21;4.05;;;1.58;;
23142;SDS011;11740;51.168;4.112;2023-06-26T11:10:08;3.33;;;1.30;;
23142;SDS011;11740;51.168;4.112;2023-06-26T11:12:42;2.78;;;1.45;;
23142;SDS011;11740;51.168;4.112;2023-06-26T11:17:42;2.55;;;1.20;;
23142;SDS011;11740;51.168;4.112;2023-06-26T11:20:10;4.05;;;1.25;;
23142;SDS011;11740;51.168;4.112;2023-06-26T11:22:41;4.80;;;1.60;;
23142;SDS011;11740;51.168;4.112;2023-06-26T11:25:09;3.42;;;1.30;;
23142;SDS011;11740;51.168;4.112;2023-06-26T11:27:38;4.70;;;1.30;;
23142;SDS011;11740;51.168;4.112;2023-06-26T11:30:09;2.55;;;1.40;;
23142;SDS011;11740;51.168;4.112;2023-06-26T11:32:48;2.88;;;1.48;;
23142;SDS011;11740;51.168;4.112;2023-06-26T11:35:24;4.28;;;1.48;;
23142;SDS011;11740;51.168;4.112;2023-06-26T11:37:58;5.90;;;1.25;;
23142;SDS011;11740;51.168;4.112;2023-06-26T11:40:32;3.60;;;1.45;;
23142;SDS011;11740;51.168;4.112;2023-06-26T11:43:00;4.70;;;1.33;;
23142;SDS011;11740;51.168;4.112;2023-06-26T11:45:32;3.30;;;1.45;;
23142;SDS011;11740;51.168;4.112;2023-06-26T11:48:00;3.25;;;1.33;;
23142;SDS011;11740;51.168;4.112;2023-06-26T11:50:28;5.22;;;1.50;;
23142;SDS011;11740;51.168;4.112;2023-06-26T11:52:55;6.40;;;1.48;;
23142;SDS011;11740;51.168;4.112;2023-06-26T11:55:24;3.95;;;1.23;;
23142;SDS011;11740;51.168;4.112;2023-06-26T11:57:53;4.75;;;1.60;;
23142;SDS011;11740;51.168;4.112;2023-06-26T12:00:21;6.80;;;1.42;;
23142;SDS011;11740;51.168;4.112;2023-06-26T12:02:49;7.68;;;1.73;;
23142;SDS011;11740;51.168;4.112;2023-06-26T12:05:18;3.22;;;1.38;;
23142;SDS011;11740;51.168;4.112;2023-06-26T12:07:46;3.30;;;1.35;;
23142;SDS011;11740;51.168;4.112;2023-06-26T12:10:15;4.65;;;1.25;;
23142;SDS011;11740;51.168;4.112;2023-06-26T12:12:43;6.35;;;1.45;;
23142;SDS011;11740;51.168;4.112;2023-06-26T12:15:13;2.63;;;1.25;;
23142;SDS011;11740;51.168;4.112;2023-06-26T12:17:42;4.47;;;1.30;;
23142;SDS011;11740;51.168;4.112;2023-06-26T12:20:21;2.67;;;1.27;;
23142;SDS011;11740;51.168;4.112;2023-06-26T12:22:48;3.72;;;1.27;;
23142;SDS011;11740;51.168;4.112;2023-06-26T12:25:21;4.47;;;1.20;;
23142;SDS011;11740;51.168;4.112;2023-06-26T12:27:49;4.00;;;1.60;;
23142;SDS011;11740;51.168;4.112;2023-06-26T12:30:16;5.05;;;1.40;;
23142;SDS011;11740;51.168;4.112;2023-06-26T12:32:44;3.42;;;1.27;;
23142;SDS011;11740;51.168;4.112;2023-06-26T12:35:13;4.03;;;1.70;;
23142;SDS011;11740;51.168;4.112;2023-06-26T12:37:42;3.22;;;1.20;;
23142;SDS011;11740;51.168;4.112;2023-06-26T12:40:17;2.33;;;1.20;;
23142;SDS011;11740;51.168;4.112;2023-06-26T12:42:49;3.30;;;1.30;;
23142;SDS011;11740;51.168;4.112;2023-06-26T12:45:16;2.22;;;1.00;;
23142;SDS011;11740;51.168;4.112;2023-06-26T12:47:46;3.95;;;1.40;;
23142;SDS011;11740;51.168;4.112;2023-06-26T12:50:13;5.93;;;1.48;;
23142;SDS011;11740;51.168;4.112;2023-06-26T12:52:40;4.28;;;1.40;;
23142;SDS011;11740;51.168;4.112;2023-06-26T12:55:07;3.03;;;1.25;;
23142;SDS011;11740;51.168;4.112;2023-06-26T12:57:35;4.35;;;1.30;;
23142;SDS011;11740;51.168;4.112;2023-06-26T13:00:02;4.55;;;1.45;;
23142;SDS011;11740;51.168;4.112;2023-06-26T13:02:29;3.90;;;1.48;;
23142;SDS011;11740;51.168;4.112;2023-06-26T13:04:56;4.35;;;1.40;;
23142;SDS011;11740;51.168;4.112;2023-06-26T13:07:23;4.15;;;1.35;;
23142;SDS011;11740;51.168;4.112;2023-06-26T13:09:52;2.75;;;1.27;;
23142;SDS011;11740;51.168;4.112;2023-06-26T13:12:19;5.53;;;1.30;;
23142;SDS011;11740;51.168;4.112;2023-06-26T13:14:46;4.72;;;1.10;;
23142;SDS011;11740;51.168;4.112;2023-06-26T13:17:13;6.03;;;1.40;;
23142;SDS011;11740;51.168;4.112;2023-06-26T13:19:40;3.67;;;1.08;;
23142;SDS011;11740;51.168;4.112;2023-06-26T13:22:07;3.95;;;1.30;;
23142;SDS011;11740;51.168;4.112;2023-06-26T13:24:34;4.18;;;1.05;;
23142;SDS011;11740;51.168;4.112;2023-06-26T13:27:01;3.75;;;1.20;;
23142;SDS011;11740;51.168;4.112;2023-06-26T13:29:28;5.30;;;1.30;;
23142;SDS011;11740;51.168;4.112;2023-06-26T13:31:55;3.58;;;1.58;;
23142;SDS011;11740;51.168;4.112;2023-06-26T13:34:23;4.07;;;1.27;;
23142;SDS011;11740;51.168;4.112;2023-06-26T13:36:54;4.57;;;1.20;;
23142;SDS011;11740;51.168;4.112;2023-06-26T13:39:21;2.90;;;1.00;;
23142;SDS011;11740;51.168;4.112;2023-06-26T13:41:48;4.20;;;1.08;;
23142;SDS011;11740;51.168;4.112;2023-06-26T13:44:15;6.00;;;1.27;;
23142;SDS011;11740;51.168;4.112;2023-06-26T13:46:57;2.45;;;1.15;;
23142;SDS011;11740;51.168;4.112;2023-06-26T13:49:24;2.40;;;1.10;;
23142;SDS011;11740;51.168;4.112;2023-06-26T13:51:51;2.42;;;1.17;;
23142;SDS011;11740;51.168;4.112;2023-06-26T13:54:17;3.30;;;1.15;;
23142;SDS011;11740;51.168;4.112;2023-06-26T13:56:44;2.10;;;0.95;;
23142;SDS011;11740;51.168;4.112;2023-06-26T13:59:12;2.67;;;1.08;;
23142;SDS011;11740;51.168;4.112;2023-06-26T14:01:39;3.50;;;1.02;;
23142;SDS011;11740;51.168;4.112;2023-06-26T14:04:09;2.17;;;1.10;;
23142;SDS011;11740;51.168;4.112;2023-06-26T14:06:36;4.72;;;1.15;;
23142;SDS011;11740;51.168;4.112;2023-06-26T14:09:03;2.70;;;1.10;;
23142;SDS011;11740;51.168;4.112;2023-06-26T14:11:30;4.32;;;1.25;;
23142;SDS011;11740;51.168;4.112;2023-06-26T14:13:58;9.43;;;1.65;;
23142;SDS011;11740;51.168;4.112;2023-06-26T14:16:26;3.58;;;1.50;;
23142;SDS011;11740;51.168;4.112;2023-06-26T14:18:55;2.80;;;1.35;;
23142;SDS011;11740;51.168;4.112;2023-06-26T14:21:22;3.25;;;1.10;;
23142;SDS011;11740;51.168;4.112;2023-06-26T14:23:51;2.45;;;1.08;;
23142;SDS011;11740;51.168;4.112;2023-06-26T14:26:18;5.03;;;1.20;;
23142;SDS011;11740;51.168;4.112;2023-06-26T14:28:45;3.65;;;1.30;;
23142;SDS011;11740;51.168;4.112;2023-06-26T14:31:13;4.35;;;1.30;;
23142;SDS011;11740;51.168;4.112;2023-06-26T14:33:40;3.25;;;1.50;;
23142;SDS011;11740;51.168;4.112;2023-06-26T14:36:07;6.95;;;1.60;;
23142;SDS011;11740;51.168;4.112;2023-06-26T14:38:34;3.80;;;1.52;;
23142;SDS011;11740;51.168;4.112;2023-06-26T14:41:01;5.30;;;1.58;;
23142;SDS011;11740;51.168;4.112;2023-06-26T14:43:28;3.75;;;1.60;;
23142;SDS011;11740;51.168;4.112;2023-06-26T14:45:56;2.95;;;1.33;;
23142;SDS011;11740;51.168;4.112;2023-06-26T14:48:23;5.05;;;1.40;;
23142;SDS011;11740;51.168;4.112;2023-06-26T14:50:50;2.35;;;1.25;;
23142;SDS011;11740;51.168;4.112;2023-06-26T14:53:17;7.85;;;1.60;;
23142;SDS011;11740;51.168;4.112;2023-06-26T14:55:44;2.45;;;1.05;;
23142;SDS011;11740;51.168;4.112;2023-06-26T14:58:11;2.95;;;1.20;;